sensor_id;sensor_type;location;lat;lon;timestamp;temperature;humidity
4643;DHT22;2334;48.710;9.622;2023-10-09T00:01:51;11.70;99.90
4643;DHT22;2334;48.710;9.622;2023-10-09T00:04:19;11.60;99.90
4643;DHT22;2334;48.710;9.622;2023-10-09T00:06:47;11.50;99.90
4643;DHT22;2334;48.710;9.622;2023-10-09T00:09:14;11.50;99.90
4643;DHT22;2334;48.710;9.622;2023-10-09T00:11:51;11.50;99.90
4643;DHT22;2334;48.710;9.622;2023-10-09T00:14:24;11.50;99.90
4643;DHT22;2334;48.710;9.622;2023-10-09T00:16:51;11.50;99.90
4643;DHT22;2334;48.710;9.622;2023-10-09T00:19:22;11.40;99.90
4643;DHT22;2334;48.710;9.622;2023-10-09T00:21:56;11.20;99.90
4643;DHT22;2334;48.710;9.622;2023-10-09T00:24:26;11.20;99.90
4643;DHT22;2334;48.710;9.622;2023-10-09T00:26:55;11.20;99.90
4643;DHT22;2334;48.710;9.622;2023-10-09T00:29:28;11.20;99.90
4643;DHT22;2334;48.710;9.622;2023-10-09T00:32:00;11.10;99.90
4643;DHT22;2334;48.710;9.622;2023-10-09T00:34:38;11.10;99.90
4643;DHT22;2334;48.710;9.622;2023-10-09T00:37:06;11.10;99.90
4643;DHT22;2334;48.710;9.622;2023-10-09T00:39:36;11.10;99.90
4643;DHT22;2334;48.710;9.622;2023-10-09T00:42:09;11.00;99.90
4643;DHT22;2334;48.710;9.622;2023-10-09T00:44:39;10.90;99.90
4643;DHT22;2334;48.710;9.622;2023-10-09T00:47:08;11.00;99.90
4643;DHT22;2334;48.710;9.622;2023-10-09T00:49:49;11.00;99.90
4643;DHT22;2334;48.710;9.622;2023-10-09T00:52:20;11.00;99.90
4643;DHT22;2334;48.710;9.622;2023-10-09T00:54:58;11.10;99.90
4643;DHT22;2334;48.710;9.622;2023-10-09T00:57:29;11.20;99.90
4643;DHT22;2334;48.710;9.622;2023-10-09T01:00:01;11.20;99.90
4643;DHT22;2334;48.710;9.622;2023-10-09T01:02:49;11.30;99.90
4643;DHT22;2334;48.710;9.622;2023-10-09T01:05:35;11.20;99.90
4643;DHT22;2334;48.710;9.622;2023-10-09T01:08:04;11.10;99.90
4643;DHT22;2334;48.710;9.622;2023-10-09T01:10:45;11.00;99.90
4643;DHT22;2334;48.710;9.622;2023-10-09T01:13:17;10.90;99.90
4643;DHT22;2334;48.710;9.622;2023-10-09T01:15:46;10.90;99.90
4643;DHT22;2334;48.710;9.622;2023-10-09T01:18:14;10.90;99.90
4643;DHT22;2334;48.710;9.622;2023-10-09T01:20:41;11.00;99.90
4643;DHT22;2334;48.710;9.622;2023-10-09T01:23:12;11.00;99.90
4643;DHT22;2334;48.710;9.622;2023-10-09T01:25:39;11.00;99.90
4643;DHT22;2334;48.710;9.622;2023-10-09T01:28:15;11.00;99.90
4643;DHT22;2334;48.710;9.622;2023-10-09T01:30:45;10.90;99.90
4643;DHT22;2334;48.710;9.622;2023-10-09T01:33:13;11.00;99.90
4643;DHT22;2334;48.710;9.622;2023-10-09T01:35:48;10.90;99.90
4643;DHT22;2334;48.710;9.622;2023-10-09T01:38:23;10.90;99.90
4643;DHT22;2334;48.710;9.622;2023-10-09T01:40:58;11.00;99.90
4643;DHT22;2334;48.710;9.622;2023-10-09T01:43:32;11.10;99.90
4643;DHT22;2334;48.710;9.622;2023-10-09T01:46:01;11.00;99.90
4643;DHT22;2334;48.710;9.622;2023-10-09T01:48:30;11.10;99.90
4643;DHT22;2334;48.710;9.622;2023-10-09T01:51:01;11.10;99.90
4643;DHT22;2334;48.710;9.622;2023-10-09T01:53:32;11.00;99.90
4643;DHT22;2334;48.710;9.622;2023-10-09T01:56:08;11.00;99.90
4643;DHT22;2334;48.710;9.622;2023-10-09T01:58:43;11.00;99.90
4643;DHT22;2334;48.710;9.622;2023-10-09T02:01:13;11.10;99.90
4643;DHT22;2334;48.710;9.622;2023-10-09T02:03:40;11.10;99.90
4643;DHT22;2334;48.710;9.622;2023-10-09T02:06:09;11.10;99.90
4643;DHT22;2334;48.710;9.622;2023-10-09T02:08:54;11.20;99.90
4643;DHT22;2334;48.710;9.622;2023-10-09T02:11:21;11.20;99.90
4643;DHT22;2334;48.710;9.622;2023-10-09T02:14:02;11.10;99.90
4643;DHT22;2334;48.710;9.622;2023-10-09T02:16:42;11.10;99.90
4643;DHT22;2334;48.710;9.622;2023-10-09T02:19:09;11.10;99.90
4643;DHT22;2334;48.710;9.622;2023-10-09T02:21:54;11.00;99.90
4643;DHT22;2334;48.710;9.622;2023-10-09T02:24:24;11.00;99.90
4643;DHT22;2334;48.710;9.622;2023-10-09T02:27:08;11.00;99.90
4643;DHT22;2334;48.710;9.622;2023-10-09T02:29:37;10.90;99.90
4643;DHT22;2334;48.710;9.622;2023-10-09T02:32:04;10.90;99.90
4643;DHT22;2334;48.710;9.622;2023-10-09T02:34:42;10.90;99.90
4643;DHT22;2334;48.710;9.622;2023-10-09T02:37:12;10.90;99.90
4643;DHT22;2334;48.710;9.622;2023-10-09T02:39:40;10.90;99.90
4643;DHT22;2334;48.710;9.622;2023-10-09T02:42:13;10.90;99.90
4643;DHT22;2334;48.710;9.622;2023-10-09T02:44:49;10.90;99.90
4643;DHT22;2334;48.710;9.622;2023-10-09T02:47:17;10.90;99.90
4643;DHT22;2334;48.710;9.622;2023-10-09T02:49:50;10.90;99.90
4643;DHT22;2334;48.710;9.622;2023-10-09T02:52:18;10.90;99.90
4643;DHT22;2334;48.710;9.622;2023-10-09T02:54:51;10.90;99.90
4643;DHT22;2334;48.710;9.622;2023-10-09T02:57:26;10.90;99.90
4643;DHT22;2334;48.710;9.622;2023-10-09T03:00:02;10.90;99.90
4643;DHT22;2334;48.710;9.622;2023-10-09T03:02:29;10.80;99.90
4643;DHT22;2334;48.710;9.622;2023-10-09T03:04:57;10.70;99.90
4643;DHT22;2334;48.710;9.622;2023-10-09T03:07:24;10.70;99.90
4643;DHT22;2334;48.710;9.622;2023-10-09T03:09:52;10.80;99.90
4643;DHT22;2334;48.710;9.622;2023-10-09T03:12:19;10.90;99.90
4643;DHT22;2334;48.710;9.622;2023-10-09T03:14:52;10.90;99.90
4643;DHT22;2334;48.710;9.622;2023-10-09T03:17:20;10.80;99.90
4643;DHT22;2334;48.710;9.622;2023-10-09T03:19:48;10.80;99.90
4643;DHT22;2334;48.710;9.622;2023-10-09T03:22:15;10.90;99.90
4643;DHT22;2334;48.710;9.622;2023-10-09T03:24:42;10.90;99.90
4643;DHT22;2334;48.710;9.622;2023-10-09T03:27:11;10.90;99.90
4643;DHT22;2334;48.710;9.622;2023-10-09T03:29:39;11.00;99.90
4643;DHT22;2334;48.710;9.622;2023-10-09T03:32:07;11.00;99.90
4643;DHT22;2334;48.710;9.622;2023-10-09T03:34:34;11.00;99.90
4643;DHT22;2334;48.710;9.622;2023-10-09T03:37:01;11.10;99.90
4643;DHT22;2334;48.710;9.622;2023-10-09T03:39:31;11.10;99.90
4643;DHT22;2334;48.710;9.622;2023-10-09T03:42:04;11.10;99.90
4643;DHT22;2334;48.710;9.622;2023-10-09T03:44:32;11.00;99.90
4643;DHT22;2334;48.710;9.622;2023-10-09T03:47:06;11.10;99.90
4643;DHT22;2334;48.710;9.622;2023-10-09T03:49:35;11.10;99.90
4643;DHT22;2334;48.710;9.622;2023-10-09T03:52:05;11.10;99.90
4643;DHT22;2334;48.710;9.622;2023-10-09T03:54:34;11.00;99.90
4643;DHT22;2334;48.710;9.622;2023-10-09T03:57:01;11.00;99.90
4643;DHT22;2334;48.710;9.622;2023-10-09T03:59:28;11.00;99.90
4643;DHT22;2334;48.710;9.622;2023-10-09T04:01:59;11.00;99.90
4643;DHT22;2334;48.710;9.622;2023-10-09T04:04:29;10.90;99.90
4643;DHT22;2334;48.710;9.622;2023-10-09T04:06:58;10.90;99.90
4643;DHT22;2334;48.710;9.622;2023-10-09T04:09:27;10.90;99.90
4643;DHT22;2334;48.710;9.622;2023-10-09T04:12:05;11.00;99.90
4643;DHT22;2334;48.710;9.622;2023-10-09T04:14:50;10.90;99.90
4643;DHT22;2334;48.710;9.622;2023-10-09T04:17:21;10.90;99.90
4643;DHT22;2334;48.710;9.622;2023-10-09T04:20:01;10.90;99.90
4643;DHT22;2334;48.710;9.622;2023-10-09T04:22:46;10.80;99.90
4643;DHT22;2334;48.710;9.622;2023-10-09T04:25:17;10.80;99.90
4643;DHT22;2334;48.710;9.622;2023-10-09T04:27:51;10.80;99.90
4643;DHT22;2334;48.710;9.622;2023-10-09T04:30:26;10.90;99.90
4643;DHT22;2334;48.710;9.622;2023-10-09T04:32:54;11.00;99.90
4643;DHT22;2334;48.710;9.622;2023-10-09T04:35:30;10.90;99.90
4643;DHT22;2334;48.710;9.622;2023-10-09T04:37:58;10.90;99.90
4643;DHT22;2334;48.710;9.622;2023-10-09T04:40:30;10.90;99.90
4643;DHT22;2334;48.710;9.622;2023-10-09T04:43:17;10.90;99.90
4643;DHT22;2334;48.710;9.622;2023-10-09T04:45:46;10.90;99.90
4643;DHT22;2334;48.710;9.622;2023-10-09T04:48:32;10.80;99.90
4643;DHT22;2334;48.710;9.622;2023-10-09T04:51:05;10.90;99.90
4643;DHT22;2334;48.710;9.622;2023-10-09T04:53:46;10.90;99.90
4643;DHT22;2334;48.710;9.622;2023-10-09T04:56:20;10.90;99.90
4643;DHT22;2334;48.710;9.622;2023-10-09T04:58:49;10.90;99.90
4643;DHT22;2334;48.710;9.622;2023-10-09T05:01:29;10.80;99.90
4643;DHT22;2334;48.710;9.622;2023-10-09T05:04:05;10.80;99.90
4643;DHT22;2334;48.710;9.622;2023-10-09T05:06:41;10.80;99.90
4643;DHT22;2334;48.710;9.622;2023-10-09T05:09:20;10.80;99.90
4643;DHT22;2334;48.710;9.622;2023-10-09T05:11:47;10.70;99.90
4643;DHT22;2334;48.710;9.622;2023-10-09T05:14:25;10.70;99.90
4643;DHT22;2334;48.710;9.622;2023-10-09T05:17:07;10.70;99.90
4643;DHT22;2334;48.710;9.622;2023-10-09T05:19:43;10.80;99.90
4643;DHT22;2334;48.710;9.622;2023-10-09T05:22:20;10.80;99.90
4643;DHT22;2334;48.710;9.622;2023-10-09T05:25:02;10.70;99.90
4643;DHT22;2334;48.710;9.622;2023-10-09T05:27:29;10.70;99.90
4643;DHT22;2334;48.710;9.622;2023-10-09T05:30:17;10.70;99.90
4643;DHT22;2334;48.710;9.622;2023-10-09T05:32:53;10.70;99.90
4643;DHT22;2334;48.710;9.622;2023-10-09T05:35:25;10.80;99.90
4643;DHT22;2334;48.710;9.622;2023-10-09T05:38:07;10.80;99.90
4643;DHT22;2334;48.710;9.622;2023-10-09T05:40:41;10.80;99.90
4643;DHT22;2334;48.710;9.622;2023-10-09T05:43:09;10.90;99.90
4643;DHT22;2334;48.710;9.622;2023-10-09T05:45:56;10.90;99.90
4643;DHT22;2334;48.710;9.622;2023-10-09T05:48:33;10.90;99.90
4643;DHT22;2334;48.710;9.622;2023-10-09T05:51:27;11.00;99.90
4643;DHT22;2334;48.710;9.622;2023-10-09T05:54:12;11.00;99.90
4643;DHT22;2334;48.710;9.622;2023-10-09T05:56:49;10.90;99.90
4643;DHT22;2334;48.710;9.622;2023-10-09T05:59:34;10.90;99.90
4643;DHT22;2334;48.710;9.622;2023-10-09T06:02:18;11.00;99.90
4643;DHT22;2334;48.710;9.622;2023-10-09T06:05:02;11.00;99.90
4643;DHT22;2334;48.710;9.622;2023-10-09T06:07:46;11.00;99.90
4643;DHT22;2334;48.710;9.622;2023-10-09T06:10:30;11.00;99.90
4643;DHT22;2334;48.710;9.622;2023-10-09T06:13:05;11.10;99.90
4643;DHT22;2334;48.710;9.622;2023-10-09T06:15:36;11.10;99.90
4643;DHT22;2334;48.710;9.622;2023-10-09T06:18:34;11.20;99.90
4643;DHT22;2334;48.710;9.622;2023-10-09T06:21:00;11.20;99.90
4643;DHT22;2334;48.710;9.622;2023-10-09T06:23:36;11.10;99.90
4643;DHT22;2334;48.710;9.622;2023-10-09T06:26:20;11.10;99.90
4643;DHT22;2334;48.710;9.622;2023-10-09T06:28:51;11.20;99.90
4643;DHT22;2334;48.710;9.622;2023-10-09T06:31:39;11.30;99.90
4643;DHT22;2334;48.710;9.622;2023-10-09T06:34:26;11.30;99.90
4643;DHT22;2334;48.710;9.622;2023-10-09T06:37:00;11.30;99.90
4643;DHT22;2334;48.710;9.622;2023-10-09T06:39:35;11.40;99.90
4643;DHT22;2334;48.710;9.622;2023-10-09T06:42:37;11.50;99.90
4643;DHT22;2334;48.710;9.622;2023-10-09T06:45:11;11.50;99.90
4643;DHT22;2334;48.710;9.622;2023-10-09T06:47:42;11.50;99.90
4643;DHT22;2334;48.710;9.622;2023-10-09T06:50:19;11.50;99.90
4643;DHT22;2334;48.710;9.622;2023-10-09T06:53:12;11.60;99.90
4643;DHT22;2334;48.710;9.622;2023-10-09T06:55:52;11.70;99.90
4643;DHT22;2334;48.710;9.622;2023-10-09T06:58:19;11.70;99.90
4643;DHT22;2334;48.710;9.622;2023-10-09T07:00:53;11.70;99.90
4643;DHT22;2334;48.710;9.622;2023-10-09T07:03:37;11.80;99.90
4643;DHT22;2334;48.710;9.622;2023-10-09T07:06:18;11.80;99.90
4643;DHT22;2334;48.710;9.622;2023-10-09T07:08:50;11.80;99.90
4643;DHT22;2334;48.710;9.622;2023-10-09T07:11:43;11.90;99.90
4643;DHT22;2334;48.710;9.622;2023-10-09T07:14:29;11.90;99.90
4643;DHT22;2334;48.710;9.622;2023-10-09T07:17:18;12.00;99.90
4643;DHT22;2334;48.710;9.622;2023-10-09T07:20:11;12.10;99.90
4643;DHT22;2334;48.710;9.622;2023-10-09T07:22:41;12.20;99.90
4643;DHT22;2334;48.710;9.622;2023-10-09T07:25:21;12.20;99.90
4643;DHT22;2334;48.710;9.622;2023-10-09T07:28:08;12.20;99.90
4643;DHT22;2334;48.710;9.622;2023-10-09T07:30:49;12.30;99.90
4643;DHT22;2334;48.710;9.622;2023-10-09T07:33:23;12.40;99.90
4643;DHT22;2334;48.710;9.622;2023-10-09T07:36:01;12.40;99.90
4643;DHT22;2334;48.710;9.622;2023-10-09T07:38:31;12.50;99.90
4643;DHT22;2334;48.710;9.622;2023-10-09T07:41:01;12.60;99.90
4643;DHT22;2334;48.710;9.622;2023-10-09T07:43:44;12.70;99.90
4643;DHT22;2334;48.710;9.622;2023-10-09T07:46:13;12.80;99.90
4643;DHT22;2334;48.710;9.622;2023-10-09T07:49:00;12.90;99.90
4643;DHT22;2334;48.710;9.622;2023-10-09T07:51:35;12.90;99.90
4643;DHT22;2334;48.710;9.622;2023-10-09T07:54:02;13.00;99.90
4643;DHT22;2334;48.710;9.622;2023-10-09T07:56:33;13.10;99.90
4643;DHT22;2334;48.710;9.622;2023-10-09T07:59:05;13.20;99.90
4643;DHT22;2334;48.710;9.622;2023-10-09T08:01:37;13.30;99.90
4643;DHT22;2334;48.710;9.622;2023-10-09T08:04:04;13.40;99.90
4643;DHT22;2334;48.710;9.622;2023-10-09T08:06:37;13.50;99.90
4643;DHT22;2334;48.710;9.622;2023-10-09T08:09:09;13.50;99.90
4643;DHT22;2334;48.710;9.622;2023-10-09T08:11:53;13.60;99.90
4643;DHT22;2334;48.710;9.622;2023-10-09T08:14:41;13.70;99.90
4643;DHT22;2334;48.710;9.622;2023-10-09T08:17:12;13.80;99.90
4643;DHT22;2334;48.710;9.622;2023-10-09T08:19:42;14.00;99.90
4643;DHT22;2334;48.710;9.622;2023-10-09T08:22:24;14.10;99.90
4643;DHT22;2334;48.710;9.622;2023-10-09T08:25:09;14.20;99.90
4643;DHT22;2334;48.710;9.622;2023-10-09T08:27:52;14.30;99.90
4643;DHT22;2334;48.710;9.622;2023-10-09T08:30:25;14.40;99.90
4643;DHT22;2334;48.710;9.622;2023-10-09T08:32:55;14.50;99.90
4643;DHT22;2334;48.710;9.622;2023-10-09T08:35:54;14.60;99.90
4643;DHT22;2334;48.710;9.622;2023-10-09T08:38:27;14.70;99.90
4643;DHT22;2334;48.710;9.622;2023-10-09T08:41:06;14.80;99.90
4643;DHT22;2334;48.710;9.622;2023-10-09T08:43:50;14.90;99.90
4643;DHT22;2334;48.710;9.622;2023-10-09T08:46:22;14.90;99.90
4643;DHT22;2334;48.710;9.622;2023-10-09T08:48:49;15.00;99.90
4643;DHT22;2334;48.710;9.622;2023-10-09T08:51:20;15.00;99.90
4643;DHT22;2334;48.710;9.622;2023-10-09T08:53:51;15.10;99.90
4643;DHT22;2334;48.710;9.622;2023-10-09T08:56:20;15.20;99.90
4643;DHT22;2334;48.710;9.622;2023-10-09T08:58:50;15.30;99.90
4643;DHT22;2334;48.710;9.622;2023-10-09T09:01:17;15.40;99.90
4643;DHT22;2334;48.710;9.622;2023-10-09T09:03:49;15.40;99.90
4643;DHT22;2334;48.710;9.622;2023-10-09T09:06:17;15.50;99.90
4643;DHT22;2334;48.710;9.622;2023-10-09T09:08:45;15.50;99.90
4643;DHT22;2334;48.710;9.622;2023-10-09T09:11:16;15.60;99.90
4643;DHT22;2334;48.710;9.622;2023-10-09T09:14:00;15.70;99.90
4643;DHT22;2334;48.710;9.622;2023-10-09T09:16:41;15.70;99.90
4643;DHT22;2334;48.710;9.622;2023-10-09T09:19:16;15.80;99.90
4643;DHT22;2334;48.710;9.622;2023-10-09T09:21:58;15.80;99.90
4643;DHT22;2334;48.710;9.622;2023-10-09T09:24:41;15.80;99.90
4643;DHT22;2334;48.710;9.622;2023-10-09T09:27:43;16.00;99.90
4643;DHT22;2334;48.710;9.622;2023-10-09T09:30:22;16.10;99.90
4643;DHT22;2334;48.710;9.622;2023-10-09T09:32:51;16.30;99.90
4643;DHT22;2334;48.710;9.622;2023-10-09T09:35:39;16.40;99.90
4643;DHT22;2334;48.710;9.622;2023-10-09T09:38:08;16.60;99.90
4643;DHT22;2334;48.710;9.622;2023-10-09T09:40:43;16.80;99.90
4643;DHT22;2334;48.710;9.622;2023-10-09T09:43:13;17.10;99.90
4643;DHT22;2334;48.710;9.622;2023-10-09T09:45:47;17.30;99.90
4643;DHT22;2334;48.710;9.622;2023-10-09T09:48:16;17.30;99.90
4643;DHT22;2334;48.710;9.622;2023-10-09T09:50:45;17.50;99.90
4643;DHT22;2334;48.710;9.622;2023-10-09T09:53:13;17.50;99.90
4643;DHT22;2334;48.710;9.622;2023-10-09T09:55:46;17.60;99.90
4643;DHT22;2334;48.710;9.622;2023-10-09T09:58:18;17.80;99.90
4643;DHT22;2334;48.710;9.622;2023-10-09T10:00:47;18.00;99.90
4643;DHT22;2334;48.710;9.622;2023-10-09T10:03:22;18.20;99.90
4643;DHT22;2334;48.710;9.622;2023-10-09T10:05:52;18.50;99.90
4643;DHT22;2334;48.710;9.622;2023-10-09T10:08:23;18.70;99.90
4643;DHT22;2334;48.710;9.622;2023-10-09T10:10:57;18.80;99.90
4643;DHT22;2334;48.710;9.622;2023-10-09T10:13:55;18.90;99.90
4643;DHT22;2334;48.710;9.622;2023-10-09T10:16:30;18.90;99.90
4643;DHT22;2334;48.710;9.622;2023-10-09T10:19:02;19.10;99.90
4643;DHT22;2334;48.710;9.622;2023-10-09T10:21:48;19.10;99.90
4643;DHT22;2334;48.710;9.622;2023-10-09T10:24:40;19.30;99.90
4643;DHT22;2334;48.710;9.622;2023-10-09T10:27:19;19.40;99.90
4643;DHT22;2334;48.710;9.622;2023-10-09T10:33:08;19.50;99.90
4643;DHT22;2334;48.710;9.622;2023-10-09T10:35:39;19.60;99.90
4643;DHT22;2334;48.710;9.622;2023-10-09T10:38:26;19.60;99.90
4643;DHT22;2334;48.710;9.622;2023-10-09T10:41:11;19.60;99.90
4643;DHT22;2334;48.710;9.622;2023-10-09T10:43:40;19.60;99.90
4643;DHT22;2334;48.710;9.622;2023-10-09T10:46:21;19.70;99.90
4643;DHT22;2334;48.710;9.622;2023-10-09T10:48:56;19.70;99.90
4643;DHT22;2334;48.710;9.622;2023-10-09T10:51:26;19.70;99.90
4643;DHT22;2334;48.710;9.622;2023-10-09T10:54:02;19.80;99.90
4643;DHT22;2334;48.710;9.622;2023-10-09T10:56:43;20.00;99.90
4643;DHT22;2334;48.710;9.622;2023-10-09T10:59:10;20.20;99.90
4643;DHT22;2334;48.710;9.622;2023-10-09T11:01:48;20.20;99.90
4643;DHT22;2334;48.710;9.622;2023-10-09T11:04:26;20.20;99.90
4643;DHT22;2334;48.710;9.622;2023-10-09T11:07:07;20.20;99.90
4643;DHT22;2334;48.710;9.622;2023-10-09T11:09:47;20.10;99.90
4643;DHT22;2334;48.710;9.622;2023-10-09T11:12:42;20.10;99.90
4643;DHT22;2334;48.710;9.622;2023-10-09T11:15:30;20.10;99.90
4643;DHT22;2334;48.710;9.622;2023-10-09T11:18:04;20.20;99.90
4643;DHT22;2334;48.710;9.622;2023-10-09T11:20:33;20.20;99.90
4643;DHT22;2334;48.710;9.622;2023-10-09T11:23:01;20.30;99.90
4643;DHT22;2334;48.710;9.622;2023-10-09T11:25:45;20.30;99.90
4643;DHT22;2334;48.710;9.622;2023-10-09T11:28:19;20.40;99.90
4643;DHT22;2334;48.710;9.622;2023-10-09T11:31:09;20.40;99.90
4643;DHT22;2334;48.710;9.622;2023-10-09T11:33:44;20.40;99.90
4643;DHT22;2334;48.710;9.622;2023-10-09T11:36:12;20.40;99.90
4643;DHT22;2334;48.710;9.622;2023-10-09T11:38:44;20.50;99.90
4643;DHT22;2334;48.710;9.622;2023-10-09T11:41:17;20.70;99.90
4643;DHT22;2334;48.710;9.622;2023-10-09T11:43:46;20.90;99.90
4643;DHT22;2334;48.710;9.622;2023-10-09T11:46:18;21.10;99.90
4643;DHT22;2334;48.710;9.622;2023-10-09T11:49:14;21.20;99.90
4643;DHT22;2334;48.710;9.622;2023-10-09T11:52:05;21.30;99.90
4643;DHT22;2334;48.710;9.622;2023-10-09T11:54:50;21.40;99.90
4643;DHT22;2334;48.710;9.622;2023-10-09T11:57:18;21.40;99.90
4643;DHT22;2334;48.710;9.622;2023-10-09T11:59:54;21.30;99.90
4643;DHT22;2334;48.710;9.622;2023-10-09T12:02:21;21.20;99.90
4643;DHT22;2334;48.710;9.622;2023-10-09T12:04:47;21.20;99.90
4643;DHT22;2334;48.710;9.622;2023-10-09T12:07:14;21.00;99.90
4643;DHT22;2334;48.710;9.622;2023-10-09T12:09:41;20.90;99.90
4643;DHT22;2334;48.710;9.622;2023-10-09T12:12:08;20.80;99.90
4643;DHT22;2334;48.710;9.622;2023-10-09T12:14:37;20.70;99.90
4643;DHT22;2334;48.710;9.622;2023-10-09T12:17:05;20.60;99.90
4643;DHT22;2334;48.710;9.622;2023-10-09T12:19:33;20.60;99.90
4643;DHT22;2334;48.710;9.622;2023-10-09T12:22:00;20.70;99.90
4643;DHT22;2334;48.710;9.622;2023-10-09T12:24:30;20.70;99.90
4643;DHT22;2334;48.710;9.622;2023-10-09T12:26:57;20.70;99.90
4643;DHT22;2334;48.710;9.622;2023-10-09T12:29:24;20.70;99.90
4643;DHT22;2334;48.710;9.622;2023-10-09T12:31:56;20.70;99.90
4643;DHT22;2334;48.710;9.622;2023-10-09T12:34:25;20.70;99.90
4643;DHT22;2334;48.710;9.622;2023-10-09T12:36:53;20.80;99.90
4643;DHT22;2334;48.710;9.622;2023-10-09T12:39:20;20.80;99.90
4643;DHT22;2334;48.710;9.622;2023-10-09T12:41:48;20.90;99.90
4643;DHT22;2334;48.710;9.622;2023-10-09T12:44:19;21.00;99.90
4643;DHT22;2334;48.710;9.622;2023-10-09T12:46:46;21.20;99.90
4643;DHT22;2334;48.710;9.622;2023-10-09T12:49:20;21.30;99.90
4643;DHT22;2334;48.710;9.622;2023-10-09T12:51:51;21.40;99.90
4643;DHT22;2334;48.710;9.622;2023-10-09T12:54:18;21.40;99.90
4643;DHT22;2334;48.710;9.622;2023-10-09T12:56:49;21.40;99.90
4643;DHT22;2334;48.710;9.622;2023-10-09T12:59:16;21.50;99.90
4643;DHT22;2334;48.710;9.622;2023-10-09T13:01:45;21.60;99.90
4643;DHT22;2334;48.710;9.622;2023-10-09T13:04:18;21.70;99.90
4643;DHT22;2334;48.710;9.622;2023-10-09T13:06:49;21.80;99.90
4643;DHT22;2334;48.710;9.622;2023-10-09T13:09:19;21.90;99.90
4643;DHT22;2334;48.710;9.622;2023-10-09T13:11:58;22.00;99.90
4643;DHT22;2334;48.710;9.622;2023-10-09T13:14:26;22.00;99.90
4643;DHT22;2334;48.710;9.622;2023-10-09T13:16:53;22.00;99.90
4643;DHT22;2334;48.710;9.622;2023-10-09T13:19:20;22.00;99.90
4643;DHT22;2334;48.710;9.622;2023-10-09T13:21:51;21.90;99.90
4643;DHT22;2334;48.710;9.622;2023-10-09T13:24:18;21.90;99.90
4643;DHT22;2334;48.710;9.622;2023-10-09T13:26:50;22.00;99.90
4643;DHT22;2334;48.710;9.622;2023-10-09T13:29:18;22.10;99.90
4643;DHT22;2334;48.710;9.622;2023-10-09T13:31:48;22.30;99.90
4643;DHT22;2334;48.710;9.622;2023-10-09T13:34:18;22.50;99.90
4643;DHT22;2334;48.710;9.622;2023-10-09T13:36:45;22.60;99.90
4643;DHT22;2334;48.710;9.622;2023-10-09T13:39:19;22.70;99.90
4643;DHT22;2334;48.710;9.622;2023-10-09T13:41:50;22.90;99.90
4643;DHT22;2334;48.710;9.622;2023-10-09T13:44:23;23.10;99.90
4643;DHT22;2334;48.710;9.622;2023-10-09T13:46:52;23.30;99.90
4643;DHT22;2334;48.710;9.622;2023-10-09T13:49:19;23.60;99.90
4643;DHT22;2334;48.710;9.622;2023-10-09T13:51:48;23.70;99.90
4643;DHT22;2334;48.710;9.622;2023-10-09T13:54:16;23.80;99.90
4643;DHT22;2334;48.710;9.622;2023-10-09T13:56:48;24.00;99.90
4643;DHT22;2334;48.710;9.622;2023-10-09T13:59:19;24.00;99.90
4643;DHT22;2334;48.710;9.622;2023-10-09T14:01:47;24.00;99.90
4643;DHT22;2334;48.710;9.622;2023-10-09T14:04:14;24.00;99.90
4643;DHT22;2334;48.710;9.622;2023-10-09T14:06:44;23.80;99.90
4643;DHT22;2334;48.710;9.622;2023-10-09T14:09:17;23.60;99.90
4643;DHT22;2334;48.710;9.622;2023-10-09T14:11:58;23.50;99.90
4643;DHT22;2334;48.710;9.622;2023-10-09T14:14:33;23.40;99.90
4643;DHT22;2334;48.710;9.622;2023-10-09T14:17:04;23.30;99.90
4643;DHT22;2334;48.710;9.622;2023-10-09T14:19:37;23.30;99.90
4643;DHT22;2334;48.710;9.622;2023-10-09T14:22:04;23.20;99.90
4643;DHT22;2334;48.710;9.622;2023-10-09T14:24:31;23.20;99.90
4643;DHT22;2334;48.710;9.622;2023-10-09T14:27:01;23.10;99.90
4643;DHT22;2334;48.710;9.622;2023-10-09T14:29:30;23.00;99.90
4643;DHT22;2334;48.710;9.622;2023-10-09T14:31:57;22.90;99.90
4643;DHT22;2334;48.710;9.622;2023-10-09T14:34:28;22.80;99.90
4643;DHT22;2334;48.710;9.622;2023-10-09T14:36:58;22.70;99.90
4643;DHT22;2334;48.710;9.622;2023-10-09T14:39:27;22.60;99.90
4643;DHT22;2334;48.710;9.622;2023-10-09T14:41:55;22.50;99.90
4643;DHT22;2334;48.710;9.622;2023-10-09T14:44:24;22.40;99.90
4643;DHT22;2334;48.710;9.622;2023-10-09T14:46:54;22.40;99.90
4643;DHT22;2334;48.710;9.622;2023-10-09T14:49:21;22.30;99.90
4643;DHT22;2334;48.710;9.622;2023-10-09T14:51:49;22.30;99.90
4643;DHT22;2334;48.710;9.622;2023-10-09T14:54:17;22.20;99.90
4643;DHT22;2334;48.710;9.622;2023-10-09T14:56:44;22.10;99.90
4643;DHT22;2334;48.710;9.622;2023-10-09T14:59:12;22.00;99.90
4643;DHT22;2334;48.710;9.622;2023-10-09T15:01:40;21.90;99.90
4643;DHT22;2334;48.710;9.622;2023-10-09T15:04:07;21.80;99.90
4643;DHT22;2334;48.710;9.622;2023-10-09T15:06:40;21.80;99.90
4643;DHT22;2334;48.710;9.622;2023-10-09T15:09:07;21.70;99.90
4643;DHT22;2334;48.710;9.622;2023-10-09T15:11:47;21.60;99.90
4643;DHT22;2334;48.710;9.622;2023-10-09T15:14:14;21.50;99.90
4643;DHT22;2334;48.710;9.622;2023-10-09T15:16:42;21.40;99.90
4643;DHT22;2334;48.710;9.622;2023-10-09T15:19:09;21.40;99.90
4643;DHT22;2334;48.710;9.622;2023-10-09T15:21:37;21.20;99.90
4643;DHT22;2334;48.710;9.622;2023-10-09T15:24:09;21.10;99.90
4643;DHT22;2334;48.710;9.622;2023-10-09T15:26:38;21.10;99.90
4643;DHT22;2334;48.710;9.622;2023-10-09T15:29:05;21.10;99.90
4643;DHT22;2334;48.710;9.622;2023-10-09T15:31:35;21.00;99.90
4643;DHT22;2334;48.710;9.622;2023-10-09T15:34:03;21.00;99.90
4643;DHT22;2334;48.710;9.622;2023-10-09T15:36:34;21.00;99.90
4643;DHT22;2334;48.710;9.622;2023-10-09T15:39:02;20.90;99.90
4643;DHT22;2334;48.710;9.622;2023-10-09T15:41:29;20.80;99.90
4643;DHT22;2334;48.710;9.622;2023-10-09T15:43:57;20.70;99.90
4643;DHT22;2334;48.710;9.622;2023-10-09T15:46:24;20.70;99.90
4643;DHT22;2334;48.710;9.622;2023-10-09T15:48:52;20.60;99.90
4643;DHT22;2334;48.710;9.622;2023-10-09T15:51:22;20.60;99.90
4643;DHT22;2334;48.710;9.622;2023-10-09T15:53:51;20.50;99.90
4643;DHT22;2334;48.710;9.622;2023-10-09T15:56:18;20.40;99.90
4643;DHT22;2334;48.710;9.622;2023-10-09T15:58:46;20.30;99.90
4643;DHT22;2334;48.710;9.622;2023-10-09T16:01:15;20.20;99.90
4643;DHT22;2334;48.710;9.622;2023-10-09T16:03:44;20.20;99.90
4643;DHT22;2334;48.710;9.622;2023-10-09T16:06:13;20.10;99.90
4643;DHT22;2334;48.710;9.622;2023-10-09T16:08:44;20.10;99.90
4643;DHT22;2334;48.710;9.622;2023-10-09T16:11:15;20.00;99.90
4643;DHT22;2334;48.710;9.622;2023-10-09T16:13:42;20.00;99.90
4643;DHT22;2334;48.710;9.622;2023-10-09T16:16:09;19.90;99.90
4643;DHT22;2334;48.710;9.622;2023-10-09T16:18:39;19.80;99.90
4643;DHT22;2334;48.710;9.622;2023-10-09T16:21:06;19.70;99.90
4643;DHT22;2334;48.710;9.622;2023-10-09T16:23:38;19.60;99.90
4643;DHT22;2334;48.710;9.622;2023-10-09T16:26:06;19.50;99.90
4643;DHT22;2334;48.710;9.622;2023-10-09T16:28:33;19.50;99.90
4643;DHT22;2334;48.710;9.622;2023-10-09T16:31:00;19.30;99.90
4643;DHT22;2334;48.710;9.622;2023-10-09T16:33:27;19.30;99.90
4643;DHT22;2334;48.710;9.622;2023-10-09T16:35:54;19.10;99.90
4643;DHT22;2334;48.710;9.622;2023-10-09T16:38:25;19.00;99.90
4643;DHT22;2334;48.710;9.622;2023-10-09T16:40:55;18.90;99.90
4643;DHT22;2334;48.710;9.622;2023-10-09T16:43:26;18.80;99.90
4643;DHT22;2334;48.710;9.622;2023-10-09T16:45:53;18.60;99.90